createdAt,value
2023-11-07T00:02:17.417Z,30.48
2023-11-07T00:04:48.951Z,25.67
2023-11-07T00:07:24.632Z,35.05
2023-11-07T00:09:56.221Z,33.10
2023-11-07T00:12:27.749Z,28.77
2023-11-07T00:14:59.573Z,28.48
2023-11-07T00:17:31.440Z,25.25
2023-11-07T00:20:05.687Z,28.58
2023-11-07T00:22:37.350Z,27.05
2023-11-07T00:25:09.794Z,30.15
2023-11-07T00:27:41.360Z,25.33
2023-11-07T00:30:13.009Z,25.63
2023-11-07T00:32:44.786Z,31.83
2023-11-07T00:35:16.464Z,27.63
2023-11-07T00:37:48.123Z,34.78
2023-11-07T00:40:19.841Z,26.58
2023-11-07T00:42:51.381Z,29.83
2023-11-07T00:45:22.987Z,27.50
2023-11-07T00:47:54.633Z,28.08
2023-11-07T00:50:26.245Z,28.38
2023-11-07T00:52:57.996Z,26.38
2023-11-07T00:55:29.489Z,22.98
2023-11-07T00:58:01.123Z,30.58
2023-11-07T01:00:34.814Z,29.25
2023-11-07T01:03:06.587Z,30.73
2023-11-07T01:05:39.450Z,26.80
2023-11-07T01:08:11.178Z,22.05
2023-11-07T01:10:42.774Z,30.77
2023-11-07T01:13:15.926Z,26.67
2023-11-07T01:15:47.475Z,28.40
2023-11-07T01:18:19.063Z,25.90
2023-11-07T01:20:50.758Z,33.95
2023-11-07T01:23:22.295Z,24.77
2023-11-07T01:25:53.921Z,21.42
2023-11-07T01:28:26.555Z,26.70
2023-11-07T01:30:58.301Z,20.17
2023-11-07T01:33:29.879Z,25.10
2023-11-07T01:36:01.552Z,28.33
2023-11-07T01:38:34.542Z,24.92
2023-11-07T01:41:06.245Z,19.92
2023-11-07T01:43:39.154Z,14.15
2023-11-07T01:46:10.801Z,17.27
2023-11-07T01:48:43.366Z,22.58
2023-11-07T01:51:15.565Z,20.67
2023-11-07T01:53:48.223Z,18.80
2023-11-07T01:56:21.246Z,22.80
2023-11-07T01:58:55.535Z,20.00
2023-11-07T02:01:29.739Z,22.45
2023-11-07T02:04:02.580Z,22.00
2023-11-07T02:06:34.569Z,25.10
2023-11-07T02:09:09.340Z,17.13
2023-11-07T02:11:41.007Z,21.60
2023-11-07T02:14:31.955Z,37.08
2023-11-07T02:17:06.694Z,21.80
2023-11-07T02:19:38.224Z,19.35
2023-11-07T02:22:13.687Z,33.25
2023-11-07T02:24:45.336Z,29.25
2023-11-07T02:27:19.031Z,19.45
2023-11-07T02:29:50.544Z,23.17
2023-11-07T02:32:22.114Z,24.08
2023-11-07T02:34:53.614Z,24.63
2023-11-07T02:37:25.243Z,22.35
2023-11-07T02:39:56.751Z,24.52
2023-11-07T02:42:29.736Z,24.90
2023-11-07T02:45:01.780Z,27.83
2023-11-07T02:47:35.113Z,21.67
2023-11-07T02:50:11.650Z,16.23
2023-11-07T02:52:43.387Z,21.90
2023-11-07T02:55:15.073Z,22.23
2023-11-07T02:57:46.635Z,22.30
2023-11-07T03:00:18.816Z,29.00
2023-11-07T03:02:50.444Z,33.90
2023-11-07T03:05:22.468Z,29.95
2023-11-07T03:07:54.233Z,26.17
2023-11-07T03:10:26.928Z,23.20
2023-11-07T03:12:58.594Z,24.90
2023-11-07T03:15:30.262Z,29.25
2023-11-07T03:18:02.296Z,22.50
2023-11-07T03:20:34.072Z,25.98
2023-11-07T03:23:05.677Z,24.08
2023-11-07T03:25:37.490Z,20.95
2023-11-07T03:28:09.582Z,23.27
2023-11-07T03:30:42.386Z,23.73
2023-11-07T03:33:15.733Z,23.73
2023-11-07T03:35:48.184Z,22.90
2023-11-07T03:38:20.817Z,34.72
2023-11-07T03:40:52.395Z,22.55
2023-11-07T03:43:23.915Z,26.10
2023-11-07T03:45:55.771Z,23.65
2023-11-07T03:48:27.446Z,21.20
2023-11-07T03:50:59.411Z,25.63
2023-11-07T03:53:32.152Z,29.67
2023-11-07T03:56:03.954Z,26.85
2023-11-07T03:58:35.548Z,25.30
2023-11-07T04:01:07.922Z,25.80
2023-11-07T04:03:39.811Z,25.30
2023-11-07T04:06:11.473Z,29.58
2023-11-07T04:08:43.113Z,27.67
2023-11-07T04:11:15.918Z,20.98
2023-11-07T04:13:48.630Z,32.38
2023-11-07T04:16:20.383Z,34.22
2023-11-07T04:18:54.568Z,33.15
2023-11-07T04:21:26.459Z,28.63
2023-11-07T04:23:58.015Z,25.75
2023-11-07T04:26:29.595Z,22.63
2023-11-07T04:29:01.152Z,22.52
2023-11-07T04:31:32.684Z,21.20
2023-11-07T04:34:04.274Z,24.92
2023-11-07T04:36:38.217Z,27.80
2023-11-07T04:39:10.748Z,23.20
2023-11-07T04:41:42.678Z,28.42
2023-11-07T04:44:14.295Z,20.38
2023-11-07T04:46:45.835Z,27.48
2023-11-07T04:49:17.512Z,24.13
2023-11-07T04:51:49.176Z,23.63
2023-11-07T04:54:20.720Z,24.40
2023-11-07T04:56:55.831Z,18.80
2023-11-07T04:59:28.013Z,19.25
2023-11-07T05:02:00.153Z,17.15
2023-11-07T05:04:32.026Z,26.95
2023-11-07T05:07:04.707Z,16.30
2023-11-07T05:09:36.248Z,17.42
2023-11-07T05:12:09.400Z,18.33
2023-11-07T05:14:41.145Z,18.38
2023-11-07T05:17:12.663Z,16.73
2023-11-07T05:19:44.238Z,24.90
2023-11-07T05:22:15.785Z,19.27
2023-11-07T05:24:47.402Z,35.10
2023-11-07T05:27:18.969Z,20.52
2023-11-07T05:29:50.604Z,25.80
2023-11-07T05:32:22.164Z,19.50
2023-11-07T05:34:53.773Z,23.90
2023-11-07T05:37:25.284Z,19.15
2023-11-07T05:39:57.538Z,24.70
2023-11-07T05:42:29.064Z,22.52
2023-11-07T05:45:02.071Z,15.93
2023-11-07T05:47:34.081Z,21.65
2023-11-07T05:50:06.689Z,17.23
2023-11-07T05:52:38.513Z,20.13
2023-11-07T05:55:11.832Z,27.80
2023-11-07T05:57:43.756Z,19.73
2023-11-07T06:00:16.293Z,19.83
2023-11-07T06:02:48.698Z,18.83
2023-11-07T06:05:22.122Z,19.92
2023-11-07T06:07:57.019Z,24.35
2023-11-07T06:10:29.094Z,24.00
2023-11-07T06:13:00.674Z,24.35
2023-11-07T06:15:33.236Z,19.30
2023-11-07T06:18:04.974Z,31.15
2023-11-07T06:20:37.121Z,21.80
2023-11-07T06:23:09.279Z,23.85
2023-11-07T06:25:41.370Z,21.42
2023-11-07T06:28:12.920Z,18.13
2023-11-07T06:30:44.814Z,26.40
2023-11-07T06:33:16.420Z,18.92
2023-11-07T06:35:50.370Z,28.23
2023-11-07T06:38:23.511Z,18.85
2023-11-07T06:40:57.016Z,23.42
2023-11-07T06:43:28.604Z,19.48
2023-11-07T06:46:00.705Z,22.60
2023-11-07T06:48:32.546Z,26.15
2023-11-07T06:51:04.507Z,21.52
2023-11-07T06:53:36.045Z,27.40
2023-11-07T06:56:08.048Z,33.83
2023-11-07T06:58:39.594Z,19.77
2023-11-07T07:01:14.571Z,21.75
2023-11-07T07:03:46.978Z,24.30
2023-11-07T07:06:19.600Z,28.67
2023-11-07T07:08:52.429Z,20.80
2023-11-07T07:11:24.053Z,23.60
2023-11-07T07:13:56.879Z,21.85
2023-11-07T07:16:31.578Z,23.63
2023-11-07T07:19:07.892Z,21.73
2023-11-07T07:21:39.696Z,26.52
2023-11-07T07:24:20.706Z,25.58
2023-11-07T07:26:52.357Z,32.42
2023-11-07T07:29:25.146Z,29.38
2023-11-07T07:31:58.560Z,25.10
2023-11-07T07:34:30.494Z,22.77
2023-11-07T07:37:02.107Z,28.58
2023-11-07T07:39:36.114Z,22.67
2023-11-07T07:42:11.912Z,26.70
2023-11-07T07:44:44.157Z,28.58
2023-11-07T07:47:16.755Z,33.50
2023-11-07T07:49:48.472Z,25.90
2023-11-07T07:52:23.865Z,19.05
2023-11-07T07:55:09.358Z,18.40
2023-11-07T07:57:47.665Z,25.30
2023-11-07T08:00:19.575Z,23.27
2023-11-07T08:02:54.371Z,20.33
2023-11-07T08:05:26.158Z,27.90
2023-11-07T08:07:57.884Z,27.60
2023-11-07T08:10:29.458Z,21.70
2023-11-07T08:13:01.173Z,32.65
2023-11-07T08:15:32.705Z,25.98
2023-11-07T08:18:08.459Z,22.52
2023-11-07T08:20:41.377Z,26.02
2023-11-07T08:23:13.001Z,21.27
2023-11-07T08:25:44.685Z,23.52
2023-11-07T08:28:16.258Z,22.85
2023-11-07T08:30:48.197Z,26.73
2023-11-07T08:33:19.947Z,25.80
2023-11-07T08:35:52.652Z,21.27
2023-11-07T08:38:26.214Z,19.00
2023-11-07T08:40:58.178Z,18.10
2023-11-07T08:43:29.987Z,22.63
2023-11-07T08:46:01.838Z,21.88
2023-11-07T08:48:33.472Z,22.40
2023-11-07T08:51:05.385Z,26.20
2023-11-07T08:53:38.409Z,26.88
2023-11-07T08:56:13.736Z,26.48
2023-11-07T08:58:46.853Z,23.38
2023-11-07T09:01:20.177Z,15.95
2023-11-07T09:03:52.805Z,15.98
2023-11-07T09:06:24.524Z,25.45
2023-11-07T09:08:56.574Z,30.80
2023-11-07T09:11:28.161Z,29.65
2023-11-07T09:13:59.784Z,25.75
2023-11-07T09:16:31.355Z,16.20
2023-11-07T09:19:03.013Z,18.70
2023-11-07T09:21:34.638Z,21.67
2023-11-07T09:24:06.785Z,20.75
2023-11-07T09:26:38.360Z,16.30
2023-11-07T09:29:09.891Z,15.30
2023-11-07T09:31:42.128Z,16.90
2023-11-07T09:34:16.228Z,23.17
2023-11-07T09:36:50.942Z,14.55
2023-11-07T09:39:23.220Z,19.67
2023-11-07T09:41:55.032Z,11.40
2023-11-07T09:44:28.512Z,10.48
2023-11-07T09:47:00.504Z,14.15
2023-11-07T09:49:32.196Z,13.55
2023-11-07T09:52:06.991Z,15.05
2023-11-07T09:54:39.938Z,10.82
2023-11-07T09:57:12.747Z,12.30
2023-11-07T09:59:54.368Z,17.30
2023-11-07T10:02:27.378Z,13.82
2023-11-07T10:04:59.631Z,15.27
2023-11-07T10:07:31.238Z,19.23
2023-11-07T10:10:06.511Z,17.70
2023-11-07T10:12:44.032Z,18.33
2023-11-07T10:15:20.427Z,11.90
2023-11-07T10:18:02.398Z,20.85
2023-11-07T10:20:35.283Z,14.05
2023-11-07T10:23:12.229Z,19.05
2023-11-07T10:25:50.361Z,18.70
2023-11-07T10:28:22.845Z,16.02
2023-11-07T10:30:54.674Z,15.40
2023-11-07T10:33:33.795Z,21.38
2023-11-07T10:36:05.903Z,11.77
2023-11-07T10:38:40.914Z,16.48
2023-11-07T10:41:27.547Z,11.38
2023-11-07T10:43:59.466Z,10.85
2023-11-07T10:46:31.832Z,35.97
2023-11-07T10:49:06.321Z,11.95
2023-11-07T10:51:38.856Z,12.77
2023-11-07T10:54:10.468Z,19.33
2023-11-07T10:56:45.842Z,11.40
2023-11-07T10:59:23.250Z,8.45
2023-11-07T11:02:00.010Z,11.50
2023-11-07T11:04:35.718Z,9.93
2023-11-07T11:07:09.259Z,9.13
2023-11-07T11:09:42.709Z,10.38
2023-11-07T11:12:15.975Z,26.15
2023-11-07T11:14:50.723Z,30.35
2023-11-07T11:17:43.113Z,12.32
2023-11-07T11:20:32.324Z,12.30
2023-11-07T11:23:13.587Z,10.15
2023-11-07T11:26:04.828Z,9.40
2023-11-07T11:28:44.110Z,12.40
2023-11-07T11:31:19.198Z,10.43
2023-11-07T11:34:24.749Z,5.57
2023-11-07T11:37:03.485Z,9.15
2023-11-07T11:39:35.232Z,9.50
2023-11-07T11:42:10.871Z,5.13
2023-11-07T11:44:42.964Z,7.78
2023-11-07T11:47:50.941Z,10.30
2023-11-07T11:50:22.691Z,7.53
2023-11-07T11:52:55.583Z,10.20
2023-11-07T11:56:13.391Z,6.50
2023-11-07T11:59:07.941Z,8.85
2023-11-07T12:01:53.930Z,4.13
2023-11-07T12:05:11.936Z,5.97
2023-11-07T12:07:44.642Z,6.13
2023-11-07T12:10:22.905Z,16.58
2023-11-07T12:13:02.571Z,6.72
2023-11-07T12:15:34.575Z,5.80
2023-11-07T12:18:06.293Z,5.95
2023-11-07T12:20:42.201Z,6.07
2023-11-07T12:23:16.319Z,7.75
2023-11-07T12:25:51.829Z,11.30
2023-11-07T12:28:23.606Z,13.68
2023-11-07T12:30:56.830Z,6.13
2023-11-07T12:33:41.433Z,10.85
2023-11-07T12:36:15.393Z,6.78
2023-11-07T12:38:47.359Z,9.32
2023-11-07T12:41:19.171Z,8.25
2023-11-07T12:43:51.005Z,8.35
2023-11-07T12:46:24.474Z,8.05
2023-11-07T12:48:56.403Z,5.70
2023-11-07T12:51:28.457Z,6.18
2023-11-07T12:54:05.450Z,6.97
2023-11-07T12:56:47.182Z,6.35
2023-11-07T12:59:19.088Z,6.20
2023-11-07T13:01:50.889Z,10.57
2023-11-07T13:04:22.513Z,5.95
2023-11-07T13:06:55.509Z,9.88
2023-11-07T13:09:30.183Z,6.78
2023-11-07T13:12:11.375Z,7.45
2023-11-07T13:14:43.335Z,6.60
2023-11-07T13:17:14.907Z,6.57
2023-11-07T13:19:48.450Z,11.15
2023-11-07T13:22:20.323Z,9.10
2023-11-07T13:24:51.898Z,4.63
2023-11-07T13:27:25.066Z,6.25
2023-11-07T13:29:56.955Z,5.30
2023-11-07T13:32:31.594Z,5.88
2023-11-07T13:35:04.850Z,6.35
2023-11-07T13:37:37.498Z,12.57
2023-11-07T13:40:10.776Z,12.68
2023-11-07T13:42:44.427Z,6.05
2023-11-07T13:45:16.159Z,11.35
2023-11-07T13:47:47.797Z,7.40
2023-11-07T13:50:19.587Z,8.45
2023-11-07T13:52:57.457Z,6.15
2023-11-07T13:55:29.419Z,6.18
2023-11-07T13:58:01.041Z,6.70
2023-11-07T14:00:33.423Z,7.00
2023-11-07T14:03:05.249Z,8.90
2023-11-07T14:05:37.121Z,14.55
2023-11-07T14:08:08.722Z,10.15
2023-11-07T14:10:40.502Z,9.95
2023-11-07T14:13:12.022Z,8.95
2023-11-07T14:15:43.844Z,10.45
2023-11-07T14:18:22.919Z,7.40
2023-11-07T14:20:59.861Z,8.50
2023-11-07T14:23:32.092Z,12.88
2023-11-07T14:26:05.936Z,8.73
2023-11-07T14:28:46.913Z,26.50
2023-11-07T14:31:26.926Z,9.15
2023-11-07T14:34:02.203Z,5.07
2023-11-07T14:36:34.093Z,10.20
2023-11-07T14:39:06.970Z,9.23
2023-11-07T14:41:39.448Z,9.15
2023-11-07T14:44:11.852Z,13.23
2023-11-07T14:46:45.993Z,10.52
2023-11-07T14:49:17.679Z,8.68
2023-11-07T14:51:49.487Z,4.63
2023-11-07T14:54:21.524Z,9.63
2023-11-07T14:57:00.994Z,7.68
2023-11-07T14:59:37.651Z,9.63
2023-11-07T15:02:18.016Z,7.80
2023-11-07T15:04:53.860Z,8.32
2023-11-07T15:07:25.506Z,15.23
2023-11-07T15:09:57.102Z,10.43
2023-11-07T15:12:28.791Z,8.82
2023-11-07T15:15:00.369Z,8.70
2023-11-07T15:17:31.987Z,12.88
2023-11-07T15:20:04.796Z,19.02
2023-11-07T15:22:38.101Z,10.43
2023-11-07T15:25:14.205Z,10.50
2023-11-07T15:27:47.782Z,12.93
2023-11-07T15:30:19.489Z,11.00
2023-11-07T15:32:54.396Z,11.75
2023-11-07T15:35:26.931Z,10.52
2023-11-07T15:38:01.650Z,14.07
2023-11-07T15:40:33.694Z,11.32
2023-11-07T15:43:06.049Z,9.25
2023-11-07T15:45:38.342Z,8.90
2023-11-07T15:48:11.502Z,13.77
2023-11-07T15:50:43.657Z,8.65
2023-11-07T15:53:15.244Z,12.00
2023-11-07T15:55:46.876Z,10.00
2023-11-07T15:58:18.493Z,8.55
2023-11-07T16:00:51.237Z,10.15
2023-11-07T16:03:22.874Z,8.00
2023-11-07T16:05:55.115Z,10.18
2023-11-07T16:08:27.252Z,8.43
2023-11-07T16:10:58.865Z,15.02
2023-11-07T16:13:30.483Z,10.32
2023-11-07T16:16:03.819Z,13.27
2023-11-07T16:18:36.622Z,12.52
2023-11-07T16:21:09.573Z,12.85
2023-11-07T16:23:43.829Z,8.85
2023-11-07T16:26:16.672Z,9.77
2023-11-07T16:28:48.479Z,11.45
2023-11-07T16:31:20.090Z,15.40
2023-11-07T16:33:52.171Z,12.73
2023-11-07T16:36:25.882Z,17.10
2023-11-07T16:38:57.678Z,10.10
2023-11-07T16:41:29.483Z,14.60
2023-11-07T16:44:01.283Z,16.75
2023-11-07T16:46:32.915Z,19.52
2023-11-07T16:49:05.532Z,12.25
2023-11-07T16:51:37.577Z,13.15
2023-11-07T16:54:09.967Z,14.35
2023-11-07T16:56:43.338Z,12.10
2023-11-07T16:59:15.476Z,11.30
2023-11-07T17:01:47.545Z,14.48
2023-11-07T17:04:19.958Z,10.38
2023-11-07T17:06:52.034Z,16.25
2023-11-07T17:09:24.267Z,12.60
2023-11-07T17:11:56.771Z,15.93
2023-11-07T17:14:29.614Z,19.23
2023-11-07T17:17:01.264Z,13.93
2023-11-07T17:19:33.234Z,19.80
2023-11-07T17:22:05.492Z,15.25
2023-11-07T17:24:38.933Z,13.80
2023-11-07T17:27:11.155Z,23.25
2023-11-07T17:29:42.871Z,23.38
2023-11-07T17:32:15.544Z,23.48
2023-11-07T17:34:47.439Z,19.30
2023-11-07T17:37:19.204Z,20.63
2023-11-07T17:39:50.862Z,19.23
2023-11-07T17:42:22.506Z,14.88
2023-11-07T17:44:54.368Z,16.73
2023-11-07T17:47:27.086Z,14.60
2023-11-07T17:49:59.539Z,15.68
2023-11-07T17:52:31.432Z,19.58
2023-11-07T17:55:03.472Z,17.60
2023-11-07T17:57:35.691Z,14.32
2023-11-07T18:00:07.866Z,13.82
2023-11-07T18:02:39.836Z,18.58
2023-11-07T18:05:11.817Z,16.92
2023-11-07T18:07:43.480Z,13.75
2023-11-07T18:10:15.067Z,14.00
2023-11-07T18:12:46.766Z,16.60
2023-11-07T18:15:18.452Z,21.05
2023-11-07T18:17:50.278Z,14.45
2023-11-07T18:20:21.929Z,14.38
2023-11-07T18:22:53.456Z,12.45
2023-11-07T18:25:25.174Z,21.33
2023-11-07T18:27:56.893Z,14.73
2023-11-07T18:30:28.590Z,17.27
2023-11-07T18:33:00.356Z,11.73
2023-11-07T18:35:32.274Z,16.27
2023-11-07T18:38:04.595Z,18.92
2023-11-07T18:40:36.463Z,18.75
2023-11-07T18:43:08.143Z,22.27
2023-11-07T18:45:39.901Z,14.65
2023-11-07T18:48:11.933Z,17.80
2023-11-07T18:50:43.622Z,20.55
2023-11-07T18:53:16.005Z,19.13
2023-11-07T18:55:47.824Z,14.65
2023-11-07T18:58:19.426Z,12.80
2023-11-07T19:00:51.338Z,24.65
2023-11-07T19:03:23.089Z,32.53
2023-11-07T19:05:54.837Z,16.83
2023-11-07T19:08:27.028Z,24.52
2023-11-07T19:10:58.828Z,24.05
2023-11-07T19:13:30.699Z,19.05
2023-11-07T19:16:05.152Z,10.85
2023-11-07T19:18:39.295Z,20.83
2023-11-07T19:21:11.082Z,12.70
2023-11-07T19:23:43.040Z,11.40
2023-11-07T19:26:14.951Z,11.93
2023-11-07T19:28:47.616Z,15.25
2023-11-07T19:31:19.484Z,13.15
2023-11-07T19:33:51.552Z,16.40
2023-11-07T19:36:25.063Z,10.05
2023-11-07T19:38:57.034Z,14.02
2023-11-07T19:41:29.156Z,17.17
2023-11-07T19:44:01.051Z,23.05
2023-11-07T19:46:34.212Z,17.40
2023-11-07T19:49:07.202Z,17.00
2023-11-07T19:51:41.448Z,20.38
2023-11-07T19:54:13.891Z,13.00
2023-11-07T19:56:45.555Z,16.83
2023-11-07T19:59:18.485Z,15.68
2023-11-07T20:01:50.421Z,15.48
2023-11-07T20:04:22.423Z,22.25
2023-11-07T20:06:54.381Z,19.42
2023-11-07T20:09:26.639Z,15.50
2023-11-07T20:11:58.641Z,22.23
2023-11-07T20:14:30.546Z,19.52
2023-11-07T20:17:02.924Z,18.83
2023-11-07T20:19:35.449Z,21.38
2023-11-07T20:22:07.659Z,20.92
2023-11-07T20:24:40.631Z,24.20
2023-11-07T20:27:13.367Z,24.33
2023-11-07T20:29:45.906Z,17.70
2023-11-07T20:32:17.938Z,19.25
2023-11-07T20:34:50.812Z,23.73
2023-11-07T20:37:23.395Z,21.33
2023-11-07T20:39:55.351Z,20.27
2023-11-07T20:42:27.623Z,18.35
2023-11-07T20:45:07.935Z,17.63
2023-11-07T20:47:43.031Z,19.95
2023-11-07T20:50:17.582Z,19.13
2023-11-07T20:52:49.783Z,27.63
2023-11-07T20:55:21.907Z,19.23
2023-11-07T20:57:58.816Z,19.35
2023-11-07T21:00:36.851Z,17.40
2023-11-07T21:03:09.037Z,36.45
2023-11-07T21:05:41.146Z,22.27
2023-11-07T21:08:13.303Z,17.70
2023-11-07T21:10:46.340Z,22.30
2023-11-07T21:13:18.408Z,26.85
2023-11-07T21:15:50.238Z,19.17
2023-11-07T21:18:22.603Z,19.60
2023-11-07T21:20:54.860Z,17.25
2023-11-07T21:23:26.530Z,19.55
2023-11-07T21:25:58.140Z,18.48
2023-11-07T21:28:29.918Z,23.08
2023-11-07T21:31:05.242Z,21.48
2023-11-07T21:33:39.909Z,17.25
2023-11-07T21:36:12.319Z,25.15
2023-11-07T21:38:44.721Z,17.80
2023-11-07T21:41:16.358Z,19.45
2023-11-07T21:43:49.189Z,22.27
2023-11-07T21:46:21.066Z,19.50
2023-11-07T21:48:52.819Z,16.45
2023-11-07T21:51:24.626Z,15.48
2023-11-07T21:53:56.649Z,16.27
2023-11-07T21:56:30.348Z,14.18
2023-11-07T21:59:02.245Z,20.52
2023-11-07T22:01:35.552Z,14.43
2023-11-07T22:04:08.127Z,17.95
2023-11-07T22:06:40.221Z,18.45
2023-11-07T22:09:11.922Z,20.48
2023-11-07T22:11:44.833Z,20.80
2023-11-07T22:14:16.718Z,19.42
2023-11-07T22:16:48.400Z,20.48
2023-11-07T22:19:20.198Z,24.20
2023-11-07T22:21:52.013Z,15.05
2023-11-07T22:24:23.866Z,20.83
2023-11-07T22:26:56.307Z,13.02
2023-11-07T22:29:27.908Z,16.55
2023-11-07T22:31:59.536Z,15.50
2023-11-07T22:34:31.501Z,14.52
2023-11-07T22:37:03.566Z,16.33
2023-11-07T22:39:35.651Z,20.25
2023-11-07T22:42:07.373Z,13.65
2023-11-07T22:44:39.542Z,12.50
2023-11-07T22:47:11.161Z,12.88
2023-11-07T22:49:42.755Z,16.48
2023-11-07T22:52:14.573Z,15.65
2023-11-07T22:54:46.125Z,14.13
2023-11-07T22:57:17.727Z,16.08
2023-11-07T22:59:49.632Z,18.08
2023-11-07T23:02:21.341Z,18.27
2023-11-07T23:04:52.936Z,16.75
2023-11-07T23:07:24.518Z,12.95
2023-11-07T23:09:56.063Z,14.35
2023-11-07T23:12:27.798Z,12.35
2023-11-07T23:15:00.516Z,15.05
2023-11-07T23:17:32.356Z,13.60
2023-11-07T23:20:07.930Z,15.75
2023-11-07T23:22:43.107Z,15.85
2023-11-07T23:25:14.727Z,19.13
2023-11-07T23:27:46.717Z,15.82
2023-11-07T23:30:18.505Z,19.38
2023-11-07T23:32:50.255Z,19.45
2023-11-07T23:35:25.199Z,19.02
2023-11-07T23:37:57.726Z,23.67
2023-11-07T23:40:30.248Z,23.10
2023-11-07T23:43:03.217Z,18.90
2023-11-07T23:45:34.775Z,20.55
2023-11-07T23:48:06.582Z,24.52
2023-11-07T23:50:38.216Z,22.95
2023-11-07T23:53:11.159Z,20.77
2023-11-07T23:55:42.693Z,21.23
2023-11-07T23:58:14.287Z,21.92
